logo
Rechercher aéroport 
image banner adimage banner adimage banner ad
image banner ad

MMCED - Cedros

Situé à Mazapil, Mexico

ICAO - , IATA -

Données fournies par Airmate  

Information générale

Coordonnées: N24°38'7" W101°47'48"
Élévation : 5551 feet MSL.
Variation magnétique : 5° East
Voir autres Aéroports à Zacatecas

Données opérationnelles

Special qualification required
Heure actuelle UTC:
Heure actuelle locale:
Météo à : - ( 0 km )
METAR: TXKF 230055Z 11003KT 9999 FEW011 SCT060 BKN180 BKN250 22/21 Q1018
Voir NOTAMs / SUP AIP / TFR affectant cet aéroport [VIEW]
Fréquences de communication: [VIEW]

Pistes:

Identifiant RWYQFULongueur (ft)Largeur (ft)SurfaceLDA (ft)
24252°00UNK
0672°00UNK

Coordonnées de l'aéroport

Adresse: Mazapil Mexico

Vue satellite de MMCED